sensor_id;sensor_type;location;lat;lon;timestamp;pressure;altitude;pressure_sealevel;temperature;humidity
8160;BME280;27404;52.398;9.646;2022-10-12T00:00:19;101883.56;;;4.15;100.00
8160;BME280;27404;52.398;9.646;2022-10-12T00:02:44;101891.56;;;4.17;100.00
8160;BME280;27404;52.398;9.646;2022-10-12T00:05:10;101887.66;;;4.19;100.00
8160;BME280;27404;52.398;9.646;2022-10-12T00:07:35;101881.56;;;4.17;100.00
8160;BME280;27404;52.398;9.646;2022-10-12T00:10:01;101890.81;;;4.06;100.00
8160;BME280;27404;52.398;9.646;2022-10-12T00:12:27;101901.22;;;3.93;100.00
8160;BME280;27404;52.398;9.646;2022-10-12T00:14:52;101883.78;;;3.87;100.00
8160;BME280;27404;52.398;9.646;2022-10-12T00:17:18;101891.91;;;3.87;100.00
8160;BME280;27404;52.398;9.646;2022-10-12T00:19:43;101899.16;;;3.87;100.00
8160;BME280;27404;52.398;9.646;2022-10-12T00:22:09;101893.22;;;3.83;100.00
8160;BME280;27404;52.398;9.646;2022-10-12T00:24:35;101896.72;;;3.75;100.00
8160;BME280;27404;52.398;9.646;2022-10-12T00:27:00;101892.50;;;3.73;100.00
8160;BME280;27404;52.398;9.646;2022-10-12T00:29:25;101898.16;;;3.61;100.00
8160;BME280;27404;52.398;9.646;2022-10-12T00:31:51;101896.31;;;3.62;100.00
8160;BME280;27404;52.398;9.646;2022-10-12T00:34:16;101894.81;;;3.67;100.00
8160;BME280;27404;52.398;9.646;2022-10-12T00:36:42;101904.16;;;3.73;100.00
8160;BME280;27404;52.398;9.646;2022-10-12T00:39:09;101904.63;;;3.68;100.00
8160;BME280;27404;52.398;9.646;2022-10-12T00:41:39;101898.47;;;3.58;100.00
8160;BME280;27404;52.398;9.646;2022-10-12T00:44:37;101901.66;;;3.53;100.00
8160;BME280;27404;52.398;9.646;2022-10-12T00:47:12;101897.41;;;3.51;100.00
8160;BME280;27404;52.398;9.646;2022-10-12T00:49:40;101897.03;;;3.46;100.00
8160;BME280;27404;52.398;9.646;2022-10-12T00:52:10;101892.94;;;3.41;100.00
8160;BME280;27404;52.398;9.646;2022-10-12T00:54:41;101884.00;;;3.41;100.00
8160;BME280;27404;52.398;9.646;2022-10-12T00:57:10;101895.13;;;3.38;100.00
8160;BME280;27404;52.398;9.646;2022-10-12T00:59:43;101898.97;;;3.35;100.00
8160;BME280;27404;52.398;9.646;2022-10-12T01:02:11;101894.56;;;3.34;100.00
8160;BME280;27404;52.398;9.646;2022-10-12T01:04:38;101903.84;;;3.32;100.00
8160;BME280;27404;52.398;9.646;2022-10-12T01:07:03;101895.91;;;3.30;100.00
8160;BME280;27404;52.398;9.646;2022-10-12T01:09:29;101899.75;;;3.28;100.00
8160;BME280;27404;52.398;9.646;2022-10-12T01:11:56;101898.94;;;3.27;100.00
8160;BME280;27404;52.398;9.646;2022-10-12T01:14:22;101899.94;;;3.26;100.00
8160;BME280;27404;52.398;9.646;2022-10-12T01:16:53;101892.81;;;3.25;100.00
8160;BME280;27404;52.398;9.646;2022-10-12T01:19:58;101894.66;;;3.24;100.00
8160;BME280;27404;52.398;9.646;2022-10-12T01:22:31;101897.69;;;3.21;100.00
8160;BME280;27404;52.398;9.646;2022-10-12T01:28:12;101896.16;;;3.19;100.00
8160;BME280;27404;52.398;9.646;2022-10-12T01:30:47;101894.06;;;3.13;100.00
8160;BME280;27404;52.398;9.646;2022-10-12T01:33:33;101889.34;;;3.15;100.00
8160;BME280;27404;52.398;9.646;2022-10-12T01:36:10;101887.31;;;3.35;100.00
8160;BME280;27404;52.398;9.646;2022-10-12T01:38:46;101893.09;;;3.40;100.00
8160;BME280;27404;52.398;9.646;2022-10-12T01:41:26;101890.66;;;3.29;100.00
8160;BME280;27404;52.398;9.646;2022-10-12T01:43:53;101889.25;;;3.24;100.00
8160;BME280;27404;52.398;9.646;2022-10-12T01:48:46;101890.44;;;3.22;100.00
8160;BME280;27404;52.398;9.646;2022-10-12T01:51:22;101892.38;;;3.11;100.00
8160;BME280;27404;52.398;9.646;2022-10-12T01:56:56;101890.72;;;3.01;100.00
8160;BME280;27404;52.398;9.646;2022-10-12T02:02:01;101884.72;;;2.89;100.00
8160;BME280;27404;52.398;9.646;2022-10-12T02:07:04;101879.94;;;2.83;100.00
8160;BME280;27404;52.398;9.646;2022-10-12T02:09:33;101879.09;;;2.82;100.00
8160;BME280;27404;52.398;9.646;2022-10-12T02:12:07;101884.81;;;2.79;100.00
8160;BME280;27404;52.398;9.646;2022-10-12T02:14:45;101882.09;;;2.79;100.00
8160;BME280;27404;52.398;9.646;2022-10-12T02:17:14;101877.53;;;2.79;100.00
8160;BME280;27404;52.398;9.646;2022-10-12T02:19:48;101870.28;;;2.80;100.00
8160;BME280;27404;52.398;9.646;2022-10-12T02:22:15;101868.59;;;2.79;100.00
8160;BME280;27404;52.398;9.646;2022-10-12T02:24:45;101871.31;;;2.79;100.00
8160;BME280;27404;52.398;9.646;2022-10-12T02:27:13;101875.84;;;2.78;100.00
8160;BME280;27404;52.398;9.646;2022-10-12T02:29:43;101864.50;;;2.75;100.00
8160;BME280;27404;52.398;9.646;2022-10-12T02:40:14;101847.16;;;2.95;100.00
8160;BME280;27404;52.398;9.646;2022-10-12T02:42:48;101848.53;;;2.81;100.00
8160;BME280;27404;52.398;9.646;2022-10-12T02:45:16;101848.59;;;2.72;100.00
8160;BME280;27404;52.398;9.646;2022-10-12T02:47:44;101845.69;;;2.65;100.00
8160;BME280;27404;52.398;9.646;2022-10-12T02:50:12;101843.13;;;2.63;100.00
8160;BME280;27404;52.398;9.646;2022-10-12T02:52:40;101839.66;;;2.71;100.00
8160;BME280;27404;52.398;9.646;2022-10-12T02:55:06;101841.28;;;2.82;100.00
8160;BME280;27404;52.398;9.646;2022-10-12T02:57:31;101840.34;;;2.73;100.00
8160;BME280;27404;52.398;9.646;2022-10-12T02:59:57;101838.50;;;2.74;100.00
8160;BME280;27404;52.398;9.646;2022-10-12T03:02:22;101835.56;;;2.85;100.00
8160;BME280;27404;52.398;9.646;2022-10-12T03:04:48;101826.78;;;2.83;100.00
8160;BME280;27404;52.398;9.646;2022-10-12T03:07:13;101825.53;;;2.77;100.00
8160;BME280;27404;52.398;9.646;2022-10-12T03:09:39;101826.91;;;2.81;100.00
8160;BME280;27404;52.398;9.646;2022-10-12T03:12:04;101833.00;;;2.84;100.00
8160;BME280;27404;52.398;9.646;2022-10-12T03:14:30;101825.84;;;2.92;100.00
8160;BME280;27404;52.398;9.646;2022-10-12T03:16:57;101828.25;;;2.95;100.00
8160;BME280;27404;52.398;9.646;2022-10-12T03:19:22;101827.75;;;3.00;100.00
8160;BME280;27404;52.398;9.646;2022-10-12T03:21:48;101837.03;;;2.79;100.00
8160;BME280;27404;52.398;9.646;2022-10-12T03:24:13;101829.31;;;2.66;100.00
8160;BME280;27404;52.398;9.646;2022-10-12T03:26:38;101826.09;;;2.63;100.00
8160;BME280;27404;52.398;9.646;2022-10-12T03:29:04;101823.06;;;2.66;100.00
8160;BME280;27404;52.398;9.646;2022-10-12T03:31:30;101834.03;;;2.83;100.00
8160;BME280;27404;52.398;9.646;2022-10-12T03:33:55;101812.72;;;2.98;100.00
8160;BME280;27404;52.398;9.646;2022-10-12T03:36:20;101823.84;;;2.94;100.00
8160;BME280;27404;52.398;9.646;2022-10-12T03:38:46;101813.56;;;2.98;100.00
8160;BME280;27404;52.398;9.646;2022-10-12T03:41:11;101811.75;;;3.07;100.00
8160;BME280;27404;52.398;9.646;2022-10-12T03:43:37;101814.47;;;3.07;100.00
8160;BME280;27404;52.398;9.646;2022-10-12T03:46:02;101806.38;;;3.07;100.00
8160;BME280;27404;52.398;9.646;2022-10-12T03:48:27;101804.94;;;2.94;100.00
8160;BME280;27404;52.398;9.646;2022-10-12T03:50:53;101802.69;;;2.90;100.00
8160;BME280;27404;52.398;9.646;2022-10-12T03:53:19;101804.63;;;2.98;100.00
8160;BME280;27404;52.398;9.646;2022-10-12T03:55:45;101808.22;;;3.06;100.00
8160;BME280;27404;52.398;9.646;2022-10-12T03:58:11;101799.94;;;3.08;100.00
8160;BME280;27404;52.398;9.646;2022-10-12T04:00:37;101799.19;;;3.16;100.00
8160;BME280;27404;52.398;9.646;2022-10-12T04:03:03;101806.50;;;3.23;100.00
8160;BME280;27404;52.398;9.646;2022-10-12T04:05:29;101806.03;;;3.28;100.00
8160;BME280;27404;52.398;9.646;2022-10-12T04:07:55;101803.16;;;3.30;100.00
8160;BME280;27404;52.398;9.646;2022-10-12T04:10:21;101803.16;;;3.30;100.00
8160;BME280;27404;52.398;9.646;2022-10-12T04:12:46;101799.44;;;3.31;100.00
8160;BME280;27404;52.398;9.646;2022-10-12T04:15:12;101807.94;;;3.36;100.00
8160;BME280;27404;52.398;9.646;2022-10-12T04:17:37;101806.94;;;3.37;100.00
8160;BME280;27404;52.398;9.646;2022-10-12T04:20:03;101795.06;;;3.30;100.00
8160;BME280;27404;52.398;9.646;2022-10-12T04:22:29;101799.75;;;3.28;100.00
8160;BME280;27404;52.398;9.646;2022-10-12T04:24:54;101797.75;;;3.30;100.00
8160;BME280;27404;52.398;9.646;2022-10-12T04:27:20;101800.09;;;3.24;100.00
8160;BME280;27404;52.398;9.646;2022-10-12T04:29:45;101793.41;;;3.10;100.00
8160;BME280;27404;52.398;9.646;2022-10-12T04:32:11;101792.41;;;3.11;100.00
8160;BME280;27404;52.398;9.646;2022-10-12T04:34:36;101790.91;;;3.17;100.00
8160;BME280;27404;52.398;9.646;2022-10-12T04:37:02;101792.84;;;3.25;100.00
8160;BME280;27404;52.398;9.646;2022-10-12T04:39:28;101793.72;;;3.34;100.00
8160;BME280;27404;52.398;9.646;2022-10-12T04:41:53;101795.09;;;3.38;100.00
8160;BME280;27404;52.398;9.646;2022-10-12T04:44:20;101796.75;;;3.31;100.00
8160;BME280;27404;52.398;9.646;2022-10-12T04:46:45;101796.94;;;3.37;100.00
8160;BME280;27404;52.398;9.646;2022-10-12T04:49:10;101798.81;;;3.37;100.00
8160;BME280;27404;52.398;9.646;2022-10-12T04:51:36;101794.25;;;3.37;100.00
8160;BME280;27404;52.398;9.646;2022-10-12T04:54:02;101799.00;;;3.44;100.00
8160;BME280;27404;52.398;9.646;2022-10-12T04:56:27;101802.41;;;3.46;100.00
8160;BME280;27404;52.398;9.646;2022-10-12T04:58:53;101806.59;;;3.40;100.00
8160;BME280;27404;52.398;9.646;2022-10-12T05:01:18;101800.13;;;3.33;100.00
8160;BME280;27404;52.398;9.646;2022-10-12T05:03:43;101798.97;;;3.35;100.00
8160;BME280;27404;52.398;9.646;2022-10-12T05:06:09;101810.84;;;3.43;100.00
8160;BME280;27404;52.398;9.646;2022-10-12T05:08:34;101794.41;;;3.36;100.00
8160;BME280;27404;52.398;9.646;2022-10-12T05:11:00;101799.50;;;3.39;100.00
8160;BME280;27404;52.398;9.646;2022-10-12T05:13:25;101798.13;;;3.35;100.00
8160;BME280;27404;52.398;9.646;2022-10-12T05:15:51;101800.09;;;3.24;100.00
8160;BME280;27404;52.398;9.646;2022-10-12T05:18:17;101797.69;;;3.21;100.00
8160;BME280;27404;52.398;9.646;2022-10-12T05:20:43;101798.69;;;3.20;100.00
8160;BME280;27404;52.398;9.646;2022-10-12T05:23:09;101799.38;;;3.22;100.00
8160;BME280;27404;52.398;9.646;2022-10-12T05:25:35;101799.28;;;3.32;100.00
8160;BME280;27404;52.398;9.646;2022-10-12T05:28:00;101794.09;;;3.39;100.00
8160;BME280;27404;52.398;9.646;2022-10-12T05:30:26;101798.31;;;3.41;100.00
8160;BME280;27404;52.398;9.646;2022-10-12T05:32:52;101787.69;;;3.40;100.00
8160;BME280;27404;52.398;9.646;2022-10-12T05:35:17;101792.41;;;3.38;100.00
8160;BME280;27404;52.398;9.646;2022-10-12T05:37:42;101784.50;;;3.45;100.00
8160;BME280;27404;52.398;9.646;2022-10-12T05:40:08;101781.31;;;3.49;100.00
8160;BME280;27404;52.398;9.646;2022-10-12T05:42:34;101788.25;;;3.52;100.00
8160;BME280;27404;52.398;9.646;2022-10-12T05:45:00;101784.72;;;3.51;100.00
8160;BME280;27404;52.398;9.646;2022-10-12T05:47:26;101779.69;;;3.65;100.00
8160;BME280;27404;52.398;9.646;2022-10-12T05:49:51;101791.06;;;3.68;100.00
8160;BME280;27404;52.398;9.646;2022-10-12T05:52:17;101772.63;;;3.64;100.00
8160;BME280;27404;52.398;9.646;2022-10-12T05:54:42;101786.66;;;3.67;100.00
8160;BME280;27404;52.398;9.646;2022-10-12T05:57:08;101777.34;;;3.70;100.00
8160;BME280;27404;52.398;9.646;2022-10-12T05:59:33;101780.41;;;3.75;100.00
8160;BME280;27404;52.398;9.646;2022-10-12T06:01:59;101783.44;;;3.72;100.00
8160;BME280;27404;52.398;9.646;2022-10-12T06:04:24;101782.81;;;3.78;100.00
8160;BME280;27404;52.398;9.646;2022-10-12T06:06:50;101781.47;;;3.82;100.00
8160;BME280;27404;52.398;9.646;2022-10-12T06:09:15;101780.31;;;3.85;100.00
8160;BME280;27404;52.398;9.646;2022-10-12T06:11:41;101780.81;;;3.89;100.00
8160;BME280;27404;52.398;9.646;2022-10-12T06:14:06;101778.81;;;3.91;100.00
8160;BME280;27404;52.398;9.646;2022-10-12T06:16:32;101789.31;;;3.94;100.00
8160;BME280;27404;52.398;9.646;2022-10-12T06:18:58;101787.28;;;3.96;100.00
8160;BME280;27404;52.398;9.646;2022-10-12T06:21:23;101788.13;;;3.96;100.00
8160;BME280;27404;52.398;9.646;2022-10-12T06:23:49;101787.13;;;3.97;100.00
8160;BME280;27404;52.398;9.646;2022-10-12T06:26:14;101783.88;;;3.94;100.00
8160;BME280;27404;52.398;9.646;2022-10-12T06:28:40;101790.16;;;3.94;100.00
8160;BME280;27404;52.398;9.646;2022-10-12T06:31:06;101779.34;;;3.94;100.00
8160;BME280;27404;52.398;9.646;2022-10-12T06:33:31;101776.81;;;4.01;100.00
8160;BME280;27404;52.398;9.646;2022-10-12T06:35:57;101781.41;;;4.09;100.00
8160;BME280;27404;52.398;9.646;2022-10-12T06:38:23;101779.94;;;4.23;100.00
8160;BME280;27404;52.398;9.646;2022-10-12T06:40:48;101779.59;;;4.26;100.00
8160;BME280;27404;52.398;9.646;2022-10-12T06:43:14;101782.31;;;4.34;100.00
8160;BME280;27404;52.398;9.646;2022-10-12T06:45:39;101789.94;;;4.39;100.00
8160;BME280;27404;52.398;9.646;2022-10-12T06:48:06;101789.31;;;4.53;100.00
8160;BME280;27404;52.398;9.646;2022-10-12T06:50:31;101780.00;;;4.64;100.00
8160;BME280;27404;52.398;9.646;2022-10-12T06:52:57;101783.03;;;4.69;100.00
8160;BME280;27404;52.398;9.646;2022-10-12T06:55:22;101780.84;;;4.81;100.00
8160;BME280;27404;52.398;9.646;2022-10-12T06:57:48;101780.69;;;4.83;100.00
8160;BME280;27404;52.398;9.646;2022-10-12T07:00:14;101786.09;;;4.83;100.00
8160;BME280;27404;52.398;9.646;2022-10-12T07:02:39;101789.31;;;4.86;100.00
8160;BME280;27404;52.398;9.646;2022-10-12T07:05:08;101790.31;;;5.02;100.00
8160;BME280;27404;52.398;9.646;2022-10-12T07:07:35;101789.81;;;5.15;100.00
8160;BME280;27404;52.398;9.646;2022-10-12T07:10:02;101790.47;;;5.25;100.00
8160;BME280;27404;52.398;9.646;2022-10-12T07:12:28;101789.59;;;5.33;100.00
8160;BME280;27404;52.398;9.646;2022-10-12T07:14:54;101789.25;;;5.44;100.00
8160;BME280;27404;52.398;9.646;2022-10-12T07:17:20;101787.19;;;5.46;100.00
8160;BME280;27404;52.398;9.646;2022-10-12T07:19:45;101781.56;;;5.64;100.00
8160;BME280;27404;52.398;9.646;2022-10-12T07:22:11;101788.50;;;5.67;100.00
8160;BME280;27404;52.398;9.646;2022-10-12T07:24:36;101785.94;;;5.74;100.00
8160;BME280;27404;52.398;9.646;2022-10-12T07:27:04;101793.34;;;5.88;100.00
8160;BME280;27404;52.398;9.646;2022-10-12T07:29:31;101789.56;;;5.98;100.00
8160;BME280;27404;52.398;9.646;2022-10-12T07:31:57;101790.25;;;6.08;100.00
8160;BME280;27404;52.398;9.646;2022-10-12T07:34:26;101790.88;;;6.18;100.00
8160;BME280;27404;52.398;9.646;2022-10-12T07:36:52;101800.84;;;6.26;100.00
8160;BME280;27404;52.398;9.646;2022-10-12T07:39:19;101797.72;;;6.37;100.00
8160;BME280;27404;52.398;9.646;2022-10-12T07:41:44;101792.66;;;6.58;100.00
8160;BME280;27404;52.398;9.646;2022-10-12T07:44:10;101792.91;;;6.71;100.00
8160;BME280;27404;52.398;9.646;2022-10-12T07:46:35;101793.81;;;6.87;100.00
8160;BME280;27404;52.398;9.646;2022-10-12T07:49:01;101806.84;;;6.91;100.00
8160;BME280;27404;52.398;9.646;2022-10-12T07:51:27;101797.22;;;7.04;100.00
8160;BME280;27404;52.398;9.646;2022-10-12T07:53:52;101793.50;;;7.20;100.00
8160;BME280;27404;52.398;9.646;2022-10-12T07:56:18;101794.28;;;7.29;100.00
8160;BME280;27404;52.398;9.646;2022-10-12T07:58:53;101789.13;;;7.34;100.00
8160;BME280;27404;52.398;9.646;2022-10-12T08:01:21;101789.25;;;7.40;100.00
8160;BME280;27404;52.398;9.646;2022-10-12T08:03:47;101790.56;;;7.45;100.00
8160;BME280;27404;52.398;9.646;2022-10-12T08:06:15;101797.41;;;7.55;100.00
8160;BME280;27404;52.398;9.646;2022-10-12T08:08:42;101796.44;;;7.63;100.00
8160;BME280;27404;52.398;9.646;2022-10-12T08:11:08;101800.41;;;7.76;100.00
8160;BME280;27404;52.398;9.646;2022-10-12T08:13:34;101792.50;;;7.81;100.00
8160;BME280;27404;52.398;9.646;2022-10-12T08:16:01;101789.69;;;7.89;100.00
8160;BME280;27404;52.398;9.646;2022-10-12T08:18:26;101806.09;;;7.96;100.00
8160;BME280;27404;52.398;9.646;2022-10-12T08:20:52;101799.25;;;8.00;100.00
8160;BME280;27404;52.398;9.646;2022-10-12T08:23:17;101806.00;;;8.04;100.00
8160;BME280;27404;52.398;9.646;2022-10-12T08:25:54;101801.31;;;8.13;100.00
8160;BME280;27404;52.398;9.646;2022-10-12T08:28:19;101808.91;;;8.18;100.00
8160;BME280;27404;52.398;9.646;2022-10-12T08:30:45;101804.78;;;8.22;100.00
8160;BME280;27404;52.398;9.646;2022-10-12T08:33:10;101806.34;;;8.31;100.00
8160;BME280;27404;52.398;9.646;2022-10-12T08:35:38;101800.19;;;8.44;100.00
8160;BME280;27404;52.398;9.646;2022-10-12T08:38:04;101792.13;;;8.51;100.00
8160;BME280;27404;52.398;9.646;2022-10-12T08:40:31;101803.38;;;8.63;100.00
8160;BME280;27404;52.398;9.646;2022-10-12T08:43:30;101801.72;;;8.68;100.00
8160;BME280;27404;52.398;9.646;2022-10-12T08:45:56;101810.81;;;8.76;100.00
8160;BME280;27404;52.398;9.646;2022-10-12T08:48:46;101800.00;;;8.82;100.00
8160;BME280;27404;52.398;9.646;2022-10-12T08:51:16;101806.16;;;8.91;100.00
8160;BME280;27404;52.398;9.646;2022-10-12T08:53:57;101808.34;;;9.02;100.00
8160;BME280;27404;52.398;9.646;2022-10-12T08:56:24;101808.22;;;9.11;100.00
8160;BME280;27404;52.398;9.646;2022-10-12T08:58:51;101800.28;;;9.16;100.00
8160;BME280;27404;52.398;9.646;2022-10-12T09:09:59;101790.78;;;9.69;100.00
8160;BME280;27404;52.398;9.646;2022-10-12T09:12:47;101801.13;;;9.80;100.00
8160;BME280;27404;52.398;9.646;2022-10-12T09:15:17;101797.19;;;9.89;100.00
8160;BME280;27404;52.398;9.646;2022-10-12T09:17:55;101801.41;;;9.99;100.00
8160;BME280;27404;52.398;9.646;2022-10-12T09:20:29;101798.75;;;10.05;100.00
8160;BME280;27404;52.398;9.646;2022-10-12T09:23:41;101795.63;;;10.15;100.00
8160;BME280;27404;52.398;9.646;2022-10-12T09:25:48;101791.47;;;10.33;100.00
8160;BME280;27404;52.398;9.646;2022-10-12T09:31:01;101798.06;;;10.52;100.00
8160;BME280;27404;52.398;9.646;2022-10-12T09:33:44;101802.94;;;10.57;100.00
8160;BME280;27404;52.398;9.646;2022-10-12T09:36:18;101791.13;;;10.63;100.00
8160;BME280;27404;52.398;9.646;2022-10-12T09:38:44;101792.66;;;10.79;100.00
8160;BME280;27404;52.398;9.646;2022-10-12T09:41:19;101792.03;;;10.90;100.00
8160;BME280;27404;52.398;9.646;2022-10-12T09:43:49;101790.97;;;11.05;100.00
8160;BME280;27404;52.398;9.646;2022-10-12T09:46:15;101788.03;;;11.13;100.00
8160;BME280;27404;52.398;9.646;2022-10-12T09:48:59;101779.59;;;11.21;100.00
8160;BME280;27404;52.398;9.646;2022-10-12T09:51:26;101780.03;;;11.32;100.00
8160;BME280;27404;52.398;9.646;2022-10-12T09:53:53;101783.38;;;11.40;100.00
8160;BME280;27404;52.398;9.646;2022-10-12T09:56:33;101779.97;;;11.65;100.00
8160;BME280;27404;52.398;9.646;2022-10-12T09:59:01;101778.25;;;11.78;100.00
8160;BME280;27404;52.398;9.646;2022-10-12T10:01:33;101782.00;;;11.83;100.00
8160;BME280;27404;52.398;9.646;2022-10-12T10:06:35;101787.22;;;12.05;100.00
8160;BME280;27404;52.398;9.646;2022-10-12T10:09:01;101784.44;;;12.19;98.72
8160;BME280;27404;52.398;9.646;2022-10-12T10:11:28;101778.03;;;12.32;100.00
8160;BME280;27404;52.398;9.646;2022-10-12T10:13:58;101775.28;;;12.32;98.15
8160;BME280;27404;52.398;9.646;2022-10-12T10:16:26;101777.75;;;12.47;95.53
8160;BME280;27404;52.398;9.646;2022-10-12T10:21:35;101775.97;;;12.59;96.40
8160;BME280;27404;52.398;9.646;2022-10-12T10:24:03;101777.03;;;12.58;94.52
8160;BME280;27404;52.398;9.646;2022-10-12T10:26:49;101781.63;;;12.64;92.76
8160;BME280;27404;52.398;9.646;2022-10-12T10:31:46;101776.50;;;12.74;89.46
8160;BME280;27404;52.398;9.646;2022-10-12T10:34:19;101761.19;;;12.60;89.33
8160;BME280;27404;52.398;9.646;2022-10-12T10:36:46;101764.56;;;12.62;89.30
8160;BME280;27404;52.398;9.646;2022-10-12T10:39:18;101764.75;;;12.67;89.17
8160;BME280;27404;52.398;9.646;2022-10-12T10:41:45;101758.31;;;12.80;89.58
8160;BME280;27404;52.398;9.646;2022-10-12T10:46:52;101749.50;;;12.71;84.69
8160;BME280;27404;52.398;9.646;2022-10-12T10:49:34;101752.63;;;12.75;85.71
8160;BME280;27404;52.398;9.646;2022-10-12T10:52:01;101747.94;;;12.82;84.43
8160;BME280;27404;52.398;9.646;2022-10-12T10:54:31;101744.59;;;12.80;84.28
8160;BME280;27404;52.398;9.646;2022-10-12T10:57:09;101745.88;;;12.78;85.25
8160;BME280;27404;52.398;9.646;2022-10-12T10:59:43;101748.19;;;12.81;85.54
8160;BME280;27404;52.398;9.646;2022-10-12T11:05:02;101734.22;;;12.82;85.60
8160;BME280;27404;52.398;9.646;2022-10-12T11:07:40;101739.81;;;12.69;87.19
8160;BME280;27404;52.398;9.646;2022-10-12T11:10:16;101740.31;;;12.59;86.07
8160;BME280;27404;52.398;9.646;2022-10-12T11:12:48;101738.28;;;12.48;86.32
8160;BME280;27404;52.398;9.646;2022-10-12T11:17:50;101728.19;;;12.41;89.13
8160;BME280;27404;52.398;9.646;2022-10-12T11:26:25;101721.00;;;12.72;87.98
8160;BME280;27404;52.398;9.646;2022-10-12T11:28:56;101717.59;;;12.77;87.00
8160;BME280;27404;52.398;9.646;2022-10-12T11:31:30;101721.28;;;12.89;86.93
8160;BME280;27404;52.398;9.646;2022-10-12T11:33:58;101718.88;;;13.00;87.05
8160;BME280;27404;52.398;9.646;2022-10-12T11:36:29;101707.81;;;13.07;87.39
8160;BME280;27404;52.398;9.646;2022-10-12T11:38:58;101706.47;;;13.16;86.66
8160;BME280;27404;52.398;9.646;2022-10-12T11:41:40;101699.09;;;13.16;85.31
8160;BME280;27404;52.398;9.646;2022-10-12T11:46:57;101690.31;;;13.26;85.66
8160;BME280;27404;52.398;9.646;2022-10-12T11:49:26;101685.19;;;13.30;84.45
8160;BME280;27404;52.398;9.646;2022-10-12T11:51:56;101677.28;;;13.22;84.81
8160;BME280;27404;52.398;9.646;2022-10-12T11:54:31;101679.69;;;13.30;83.45
8160;BME280;27404;52.398;9.646;2022-10-12T11:57:03;101676.28;;;13.35;84.49
8160;BME280;27404;52.398;9.646;2022-10-12T12:04:49;101675.81;;;13.19;83.29
8160;BME280;27404;52.398;9.646;2022-10-12T12:15:38;101655.28;;;13.40;85.29
8160;BME280;27404;52.398;9.646;2022-10-12T12:18:12;101658.84;;;13.47;82.84
8160;BME280;27404;52.398;9.646;2022-10-12T12:28:35;101639.16;;;13.51;81.21
8160;BME280;27404;52.398;9.646;2022-10-12T12:31:38;101629.28;;;13.61;77.66
8160;BME280;27404;52.398;9.646;2022-10-12T12:34:14;101633.25;;;13.66;71.87
8160;BME280;27404;52.398;9.646;2022-10-12T12:36:42;101630.50;;;13.66;70.52
8160;BME280;27404;52.398;9.646;2022-10-12T12:41:53;101624.81;;;13.79;71.23
8160;BME280;27404;52.398;9.646;2022-10-12T12:49:39;101627.66;;;13.72;71.30
8160;BME280;27404;52.398;9.646;2022-10-12T12:55:02;101620.22;;;13.91;63.81
8160;BME280;27404;52.398;9.646;2022-10-12T13:00:23;101614.34;;;13.88;65.28
8160;BME280;27404;52.398;9.646;2022-10-12T13:14:00;101612.50;;;14.12;65.03
8160;BME280;27404;52.398;9.646;2022-10-12T13:17:02;101610.72;;;14.18;64.40
8160;BME280;27404;52.398;9.646;2022-10-12T13:19:32;101609.16;;;14.22;65.57
8160;BME280;27404;52.398;9.646;2022-10-12T13:22:03;101612.66;;;14.29;63.56
8160;BME280;27404;52.398;9.646;2022-10-12T13:24:47;101603.78;;;14.27;63.02
8160;BME280;27404;52.398;9.646;2022-10-12T13:27:25;101602.72;;;14.28;62.03
8160;BME280;27404;52.398;9.646;2022-10-12T13:30:05;101600.69;;;14.24;64.21
8160;BME280;27404;52.398;9.646;2022-10-12T13:32:43;101598.28;;;14.27;61.40
8160;BME280;27404;52.398;9.646;2022-10-12T13:40:41;101586.56;;;14.32;62.16
8160;BME280;27404;52.398;9.646;2022-10-12T13:45:44;101581.78;;;14.39;64.34
8160;BME280;27404;52.398;9.646;2022-10-12T13:48:16;101574.38;;;14.28;61.93
8160;BME280;27404;52.398;9.646;2022-10-12T13:50:53;101571.00;;;14.26;63.41
8160;BME280;27404;52.398;9.646;2022-10-12T13:53:20;101569.84;;;14.21;63.03
8160;BME280;27404;52.398;9.646;2022-10-12T13:56:16;101572.81;;;14.20;62.56
8160;BME280;27404;52.398;9.646;2022-10-12T13:58:43;101563.97;;;14.18;62.52
8160;BME280;27404;52.398;9.646;2022-10-12T14:01:10;101570.53;;;14.17;63.58
8160;BME280;27404;52.398;9.646;2022-10-12T14:03:40;101566.84;;;14.11;63.93
8160;BME280;27404;52.398;9.646;2022-10-12T14:06:32;101549.97;;;14.07;62.50
8160;BME280;27404;52.398;9.646;2022-10-12T14:09:07;101551.88;;;14.07;62.91
8160;BME280;27404;52.398;9.646;2022-10-12T14:11:33;101553.69;;;14.13;63.84
8160;BME280;27404;52.398;9.646;2022-10-12T14:14:00;101551.97;;;14.00;64.48
8160;BME280;27404;52.398;9.646;2022-10-12T14:16:26;101545.41;;;13.89;64.30
8160;BME280;27404;52.398;9.646;2022-10-12T14:18:51;101543.59;;;13.83;64.29
8160;BME280;27404;52.398;9.646;2022-10-12T14:21:23;101541.31;;;13.80;64.88
8160;BME280;27404;52.398;9.646;2022-10-12T14:24:07;101537.94;;;13.78;65.98
8160;BME280;27404;52.398;9.646;2022-10-12T14:26:41;101541.09;;;13.82;64.29
8160;BME280;27404;52.398;9.646;2022-10-12T14:29:27;101538.81;;;13.90;65.82
8160;BME280;27404;52.398;9.646;2022-10-12T14:31:58;101529.38;;;13.86;64.41
8160;BME280;27404;52.398;9.646;2022-10-12T14:39:25;101527.69;;;13.85;66.07
8160;BME280;27404;52.398;9.646;2022-10-12T14:41:51;101530.44;;;13.85;65.31
8160;BME280;27404;52.398;9.646;2022-10-12T14:44:18;101530.22;;;13.87;65.57
8160;BME280;27404;52.398;9.646;2022-10-12T14:47:01;101529.38;;;13.86;65.75
8160;BME280;27404;52.398;9.646;2022-10-12T14:49:49;101516.94;;;13.84;67.41
8160;BME280;27404;52.398;9.646;2022-10-12T14:52:22;101516.09;;;13.83;66.62
8160;BME280;27404;52.398;9.646;2022-10-12T14:54:51;101507.03;;;13.83;67.72
8160;BME280;27404;52.398;9.646;2022-10-12T14:57:18;101511.78;;;13.75;68.13
8160;BME280;27404;52.398;9.646;2022-10-12T14:59:44;101507.00;;;13.71;68.99
8160;BME280;27404;52.398;9.646;2022-10-12T15:04:42;101503.34;;;13.46;71.88
8160;BME280;27404;52.398;9.646;2022-10-12T15:07:14;101499.31;;;13.49;71.75
8160;BME280;27404;52.398;9.646;2022-10-12T15:09:40;101498.44;;;13.48;72.45